Forside
METAR-TAF:

METAR-TAF

Lufthavne :

Sønderborg Lufthavn

Sønderborg, Danmark

Breddekreds: 54-58N, længdekreds: 009-47E, højde: 7 m

Aktuelle vejr

Denne rapport blev lavet for 35 minutter siden, kl. 19:50 UTC
Vind 4 kt fra nordnordøst
Temperatur 17°C
Fugtighed 94%
Tryk 1006 hPa
Sigt 10 km eller mere

METAR: EKSB 271950Z AUTO 02004KT 9999NDV ///////// 17/16 Q1006

Tid: 22:25 (20:25 UTC)

Vejrudsigter

Denne rapport blev lavet for 7 timer og 55 minutter siden, kl. 12:30 UTC
Foreløbig gælder fra 27 på 12 UTC til 27 på 17 UTC
Vind 8 kt fra nordnordøst
Sigt 10 km eller mere
Spredte skyer i en højde af 500 ft
Brudte skyer i en højde af 2000 ft
Midlertidig
fra 27 på 12 UTC til 27 på 17 UTC
Brudte skyer i en højde af 500 ft

TAF: EKSB 271230Z 2712/2717 02008KT 9999 SCT005 BKN020 TEMPO 2712/2717 BKN005

Vejrobservationer og prognoser fra mere end 4000 lufthavne (METAR og TAF).

De gule og røde prikker repræsenterer de meteorologiske stationer.

Flyt musen over at se navnet på stationen.

Så klik over at se vejr observationer og prognoser.

At skifte det kort: Klik på de grønne knapper med et sort kors for at zoome ind; på den grønne knap med en bindestreg for at zoome ud; eller på de grønne pile for tilstødende kort.


METAR-TAF: